Time;durP1;ratioP1;P1;durP2;ratioP2;P2;SDS_P1;SDS_P2;PMS_P1;PMS_P2;Temp;Humidity;BMP_temperature;BMP_pressure;BME280_temperature;BME280_humidity;BME280_pressure;Samples;Min_cycle;Max_cycle;Signal;HPM_P1;HPM_P2
2022/10/17 00:01:09;;;;;;;7.38;3.70;;;;;;;14.83;88.91;98713.84;4939613;29;20515;-90
2022/10/17 00:03:39;;;;;;;3.92;3.08;;;;;;;14.76;88.82;98702.53;4918424;29;20675;-90
2022/10/17 00:06:14;;;;;;;4.88;3.90;;;;;;;14.78;88.79;98711.03;4929627;29;20038;-90
2022/10/17 00:08:44;;;;;;;9.30;3.38;;;;;;;14.78;88.52;98711.84;4924665;29;20031;-90
2022/10/17 00:11:23;;;;;;;7.93;3.42;;;;;;;14.78;88.15;98708.38;4942665;29;20032;-90
2022/10/17 00:13:55;;;;;;;3.97;3.00;;;;;;;14.88;88.27;98732.50;4922272;29;20028;-90
2022/10/17 00:16:30;;;;;;;5.68;3.10;;;;;;;14.88;88.31;98732.50;4921049;29;20071;-91
2022/10/17 00:18:59;;;;;;;4.63;3.70;;;;;;;14.98;87.86;98744.22;4947941;28;20039;-90
2022/10/17 00:21:29;;;;;;;5.35;3.80;;;;;;;14.83;87.37;98727.06;4944132;28;20028;-89
2022/10/17 00:23:55;;;;;;;7.30;3.30;;;;;;;14.89;87.42;98734.13;4914290;29;20118;-90
2022/10/17 00:26:26;;;;;;;5.53;3.58;;;;;;;14.78;87.54;98716.31;4928482;29;20406;-88
2022/10/17 00:28:55;;;;;;;6.35;3.30;;;;;;;14.83;87.57;98734.97;4929415;29;20035;-90
2022/10/17 00:31:23;;;;;;;4.53;3.47;;;;;;;14.81;87.73;98737.81;4926845;29;20065;-88
2022/10/17 00:33:54;;;;;;;12.57;3.88;;;;;;;14.72;89.38;98741.72;4918225;29;20055;-88
2022/10/17 00:36:25;;;;;;;5.68;3.75;;;;;;;14.66;88.77;98730.16;4930181;29;20468;-89
2022/10/17 00:39:12;;;;;;;7.07;3.47;;;;;;;14.67;89.61;98742.34;4932439;29;20047;-92
2022/10/17 00:41:49;;;;;;;5.68;3.53;;;;;;;14.56;89.53;98719.25;4923931;29;20087;-90
2022/10/17 00:44:30;;;;;;;7.15;3.60;;;;;;;14.67;89.44;98737.06;4913821;29;20044;-90
2022/10/17 00:47:10;;;;;;;5.22;3.50;;;;;;;14.58;89.39;98727.78;4948127;29;20409;-91
2022/10/17 00:49:41;;;;;;;5.30;3.35;;;;;;;14.72;89.50;98745.16;4945249;29;20032;-88
2022/10/17 00:52:23;;;;;;;6.15;3.90;;;;;;;14.51;90.08;98718.25;4947758;29;20034;-91
2022/10/17 00:55:03;;;;;;;6.20;3.80;;;;;;;14.67;90.23;98746.81;4932591;29;20028;-89
2022/10/17 00:57:33;;;;;;;7.57;3.67;;;;;;;14.52;91.20;98735.72;4908532;29;20076;-91
2022/10/17 01:00:06;;;;;;;7.50;3.97;;;;;;;14.50;90.83;98738.56;4915489;29;20044;-90
2022/10/17 01:02:34;;;;;;;5.45;3.60;;;;;;;14.46;92.33;98721.50;4914768;29;20036;-90
2022/10/17 01:05:11;;;;;;;;;;;;;;;;;;;;;
2022/10/17 01:07:43;;;;;;;4.78;3.80;;;;;;;14.49;91.45;98709.75;4932191;29;20042;-90
2022/10/17 01:10:12;;;;;;;5.68;3.78;;;;;;;14.67;92.86;98752.91;4932343;29;20702;-91
2022/10/17 01:13:18;;;;;;;6.80;3.92;;;;;;;14.67;93.68;98752.09;4925535;29;20398;-89
2022/10/17 01:16:04;;;;;;;7.78;3.75;;;;;;;14.79;93.83;98749.59;4893199;29;20470;-88
2022/10/17 01:18:38;;;;;;;7.32;3.97;;;;;;;14.67;93.66;98733.63;4918401;29;20099;-87
2022/10/17 01:21:37;;;;;;;5.72;3.88;;;;;;;14.89;92.64;98755.25;4946915;29;20036;-88
2022/10/17 01:24:48;;;;;;;6.32;3.85;;;;;;;14.91;93.05;98747.91;4915734;29;20091;-89
2022/10/17 01:28:05;;;;;;;6.95;3.92;;;;;;;14.98;92.77;98746.84;4946579;29;20074;-87
2022/10/17 01:30:58;;;;;;;5.97;4.15;;;;;;;15.01;92.54;98763.31;4914512;29;20490;-86
2022/10/17 01:34:02;;;;;;;8.65;3.85;;;;;;;14.93;90.97;98751.16;4929045;29;20187;-88
2022/10/17 01:36:57;;;;;;;6.00;3.80;;;;;;;14.85;91.08;98748.75;4918011;29;20027;-88
2022/10/17 01:39:58;;;;;;;10.90;4.40;;;;;;;14.90;91.15;98754.22;4918716;29;20051;-87
2022/10/17 01:42:32;;;;;;;7.13;3.80;;;;;;;14.88;92.11;98753.66;4935592;29;20139;-87
2022/10/17 01:45:28;;;;;;;5.32;3.55;;;;;;;14.82;91.59;98743.91;4927712;29;20039;-89
2022/10/17 01:47:59;;;;;;;5.53;4.30;;;;;;;14.82;92.63;98734.16;4947180;29;20122;-87
2022/10/17 01:50:37;;;;;;;4.10;3.40;;;;;;;14.77;92.54;98722.63;4930681;29;20091;-87
2022/10/17 01:53:17;;;;;;;5.10;3.35;;;;;;;14.78;91.36;98726.88;4936574;29;20046;-87
2022/10/17 01:55:47;;;;;;;5.70;3.35;;;;;;;14.67;90.57;98715.94;4928040;29;20040;-87
2022/10/17 01:58:26;;;;;;;5.68;3.42;;;;;;;14.67;90.15;98729.16;4934516;29;20040;-88
2022/10/17 02:01:04;;;;;;;7.38;3.65;;;;;;;14.60;89.75;98723.09;4935524;29;20036;-88
2022/10/17 02:03:33;;;;;;;6.95;3.35;;;;;;;14.69;89.67;98735.03;4926147;29;20044;-88
2022/10/17 02:06:03;;;;;;;6.47;3.80;;;;;;;14.65;90.20;98747.03;4933041;29;20035;-87
2022/10/17 02:08:48;;;;;;;5.07;3.63;;;;;;;14.55;90.05;98735.28;4930240;29;20067;-89
2022/10/17 02:11:26;;;;;;;9.30;3.42;;;;;;;14.52;90.34;98728.63;4935266;29;20064;-88
2022/10/17 02:14:17;;;;;;;5.18;3.47;;;;;;;14.59;90.53;98731.22;4934181;29;20389;-87
2022/10/17 02:17:09;;;;;;;5.72;3.20;;;;;;;14.56;90.71;98724.53;4916672;29;20463;-88
2022/10/17 02:20:09;;;;;;;6.30;3.33;;;;;;;14.51;91.36;98732.25;4920467;29;20377;-88
2022/10/17 02:22:50;;;;;;;5.13;3.75;;;;;;;14.38;91.63;98719.88;4892388;29;20050;-88
2022/10/17 02:25:37;;;;;;;6.78;3.60;;;;;;;14.48;91.24;98740.59;4934042;29;20048;-88
2022/10/17 02:28:08;;;;;;;5.35;3.40;;;;;;;14.41;91.72;98721.31;4925216;29;20043;-88
2022/10/17 02:30:50;;;;;;;5.15;3.55;;;;;;;14.36;90.59;98716.66;4924927;29;20036;-88
2022/10/17 02:33:34;;;;;;;5.78;3.88;;;;;;;14.42;89.99;98729.03;4926336;29;20076;-87
2022/10/17 02:36:07;;;;;;;5.22;3.72;;;;;;;14.37;91.15;98735.94;4927909;29;20512;-87
2022/10/17 02:38:34;;;;;;;8.30;3.90;;;;;;;14.23;90.77;98718.53;4929097;29;20067;-88
2022/10/17 02:41:01;;;;;;;6.50;3.33;;;;;;;14.25;90.24;98722.56;4920552;29;20401;-87
2022/10/17 02:43:27;;;;;;;7.45;3.67;;;;;;;14.26;90.07;98728.66;4934514;29;20481;-88
2022/10/17 02:45:55;;;;;;;5.68;3.53;;;;;;;14.23;89.84;98743.09;4928700;29;20230;-88
2022/10/17 02:48:48;;;;;;;4.63;3.65;;;;;;;14.30;90.14;98751.78;4934714;29;20051;-88
2022/10/17 02:51:25;;;;;;;3.67;3.38;;;;;;;14.28;90.10;98753.03;4932025;29;20051;-89
2022/10/17 02:54:29;;;;;;;5.95;3.65;;;;;;;14.27;90.43;98754.03;4934690;29;20074;-88
2022/10/17 02:57:15;;;;;;;7.82;3.67;;;;;;;14.28;90.41;98751.19;4942105;29;20050;-88
2022/10/17 02:59:44;;;;;;;8.60;3.42;;;;;;;14.19;90.14;98736.59;4934285;29;20039;-88
2022/10/17 03:02:10;;;;;;;6.03;3.55;;;;;;;14.08;89.89;98732.75;4932305;29;20505;-88
2022/10/17 03:04:36;;;;;;;4.85;3.25;;;;;;;14.22;89.99;98754.66;4929678;29;20067;-88
2022/10/17 03:07:02;;;;;;;4.28;3.40;;;;;;;14.02;90.05;98732.78;4915514;29;20553;-88
2022/10/17 03:09:28;;;;;;;5.18;3.78;;;;;;;13.95;90.78;98738.06;4917684;29;20078;-88
2022/10/17 03:11:54;;;;;;;6.03;3.83;;;;;;;14.16;90.68;98761.56;4924374;29;20047;-88
2022/10/17 03:14:21;;;;;;;4.78;4.13;;;;;;;14.12;91.01;98757.72;4923363;29;20036;-87
2022/10/17 03:16:47;;;;;;;4.13;3.35;;;;;;;14.09;90.29;98755.50;4922662;29;20087;-88
2022/10/17 03:19:12;;;;;;;4.80;3.85;;;;;;;14.13;90.62;98761.97;4926097;29;20090;-89
2022/10/17 03:21:38;;;;;;;4.63;3.63;;;;;;;14.13;90.42;98764.63;4933252;29;20040;-88
2022/10/17 03:24:04;;;;;;;7.28;3.92;;;;;;;14.03;89.79;98756.31;4938798;29;20067;-88
2022/10/17 03:26:30;;;;;;;5.65;3.40;;;;;;;14.02;90.21;98749.41;4929671;29;20024;-88
2022/10/17 03:28:55;;;;;;;5.88;3.75;;;;;;;14.11;90.67;98776.41;4922506;29;20111;-88
2022/10/17 03:31:21;;;;;;;3.92;3.45;;;;;;;14.10;90.98;98778.22;4920168;29;20437;-88
2022/10/17 03:33:47;;;;;;;5.57;3.50;;;;;;;14.11;90.41;98779.84;4933439;29;20099;-88
2022/10/17 03:36:17;;;;;;;5.28;3.58;;;;;;;14.10;90.29;98777.41;4915008;29;20477;-88
2022/10/17 03:39:03;;;;;;;8.88;3.38;;;;;;;14.09;89.97;98781.03;4919020;29;20511;-88
2022/10/17 03:41:29;;;;;;;6.10;3.67;;;;;;;14.11;89.53;98779.03;4926694;29;20048;-88
2022/10/17 03:43:54;;;;;;;4.43;3.42;;;;;;;14.17;89.19;98788.75;4933182;29;20123;-87
2022/10/17 03:46:20;;;;;;;8.05;3.55;;;;;;;13.97;89.00;98774.78;4909672;29;20126;-88
2022/10/17 03:48:45;;;;;;;6.25;3.95;;;;;;;14.01;89.32;98784.72;4943189;29;20050;-88
2022/10/17 03:51:14;;;;;;;5.88;3.78;;;;;;;13.99;89.60;98786.75;4930534;29;20465;-87
2022/10/17 03:53:41;;;;;;;6.82;3.22;;;;;;;13.83;89.68;98784.53;4924482;29;20032;-87
2022/10/17 03:56:26;;;;;;;8.05;3.75;;;;;;;13.84;89.66;98783.50;4923306;29;20043;-88
2022/10/17 03:58:51;;;;;;;6.07;3.60;;;;;;;13.83;89.32;98793.25;4932275;29;20117;-88
2022/10/17 04:01:18;;;;;;;4.53;3.33;;;;;;;13.89;88.87;98802.16;4932695;29;20730;-88
2022/10/17 04:03:49;;;;;;;7.05;3.80;;;;;;;13.85;89.02;98793.03;4933622;29;20058;-88
2022/10/17 04:06:15;;;;;;;5.45;3.63;;;;;;;13.84;89.23;98800.13;4928654;29;20123;-88
2022/10/17 04:08:41;;;;;;;5.70;3.65;;;;;;;13.85;89.60;98807.06;4929484;29;20668;-88
2022/10/17 04:11:11;;;;;;;4.93;3.60;;;;;;;13.76;89.94;98796.91;4923359;29;20039;-88
2022/10/17 04:13:37;;;;;;;7.57;3.53;;;;;;;13.70;89.97;98792.44;4931666;29;20051;-88
2022/10/17 04:16:07;;;;;;;6.32;3.85;;;;;;;13.79;89.48;98813.13;4927810;29;20087;-88
2022/10/17 04:18:33;;;;;;;5.18;3.13;;;;;;;13.76;89.25;98818.00;4913721;29;20043;-88
2022/10/17 04:21:05;;;;;;;6.93;3.53;;;;;;;13.59;89.62;98802.56;4938293;29;20044;-88
2022/10/17 04:23:31;;;;;;;7.78;3.60;;;;;;;13.54;90.06;98806.81;4933061;29;20039;-89
2022/10/17 04:25:58;;;;;;;6.85;4.70;;;;;;;13.46;90.74;98804.38;4926656;29;20027;-89
2022/10/17 04:28:25;;;;;;;7.72;3.63;;;;;;;13.37;90.92;98793.19;4932242;29;20112;-89
2022/10/17 04:31:11;;;;;;;7.07;3.88;;;;;;;13.39;91.10;98793.84;4928822;29;20036;-89
2022/10/17 04:33:37;;;;;;;8.75;3.78;;;;;;;13.34;90.37;98799.69;4915473;29;20143;-89
2022/10/17 04:36:13;;;;;;;3.83;3.35;;;;;;;13.26;90.88;98797.25;4915354;29;20497;-89
2022/10/17 04:38:50;;;;;;;7.53;3.83;;;;;;;13.35;91.33;98805.78;4930478;29;20047;-89
2022/10/17 04:41:20;;;;;;;10.10;3.92;;;;;;;13.37;91.04;98801.09;4931827;29;20031;-89
2022/10/17 04:43:51;;;;;;;5.65;3.63;;;;;;;13.53;91.07;98810.47;4926371;29;20063;-89
2022/10/17 04:46:16;;;;;;;7.00;3.30;;;;;;;13.59;91.16;98815.75;4926457;29;20058;-88
2022/10/17 04:48:42;;;;;;;10.90;3.40;;;;;;;13.50;90.17;98809.06;4933029;29;20028;-89
2022/10/17 04:51:17;;;;;;;4.85;3.30;;;;;;;13.58;90.75;98819.41;4932746;29;20032;-88
2022/10/17 04:53:44;;;;;;;4.82;3.35;;;;;;;13.51;90.87;98804.59;4932944;29;20035;-89
2022/10/17 04:56:18;;;;;;;5.27;3.50;;;;;;;13.58;90.36;98814.13;4914094;29;20111;-89
2022/10/17 04:58:47;;;;;;;8.20;3.92;;;;;;;13.44;90.22;98803.78;4937137;29;20425;-88
2022/10/17 05:01:17;;;;;;;6.55;3.90;;;;;;;13.51;90.49;98810.69;4930722;29;20521;-89
2022/10/17 05:03:46;;;;;;;4.37;3.20;;;;;;;13.58;90.44;98816.75;4929414;29;20314;-88
2022/10/17 05:06:17;;;;;;;11.10;3.70;;;;;;;13.58;89.33;98800.13;4917947;29;20042;-88
2022/10/17 05:08:44;;;;;;;6.65;3.53;;;;;;;13.69;89.00;98825.91;4931277;29;20042;-88
2022/10/17 05:11:27;;;;;;;11.55;3.70;;;;;;;13.54;88.44;98812.91;4931266;29;20532;-89
2022/10/17 05:14:00;;;;;;;5.95;3.63;;;;;;;13.60;88.11;98822.63;4935429;29;20155;-88
2022/10/17 05:16:28;;;;;;;4.97;3.65;;;;;;;13.54;87.72;98804.19;4929941;29;20028;-88
2022/10/17 05:18:56;;;;;;;6.65;3.72;;;;;;;13.48;88.07;98805.78;4930630;29;20489;-89
2022/10/17 05:21:26;;;;;;;4.53;3.90;;;;;;;13.55;88.32;98822.41;4934801;29;20504;-88
2022/10/17 05:23:52;;;;;;;5.47;3.90;;;;;;;13.45;88.41;98806.22;4931022;29;20078;-88
2022/10/17 05:26:19;;;;;;;8.65;4.75;;;;;;;13.65;88.64;98833.38;4922897;29;20429;-88
2022/10/17 05:28:45;;;;;;;4.65;3.67;;;;;;;13.55;88.45;98822.41;4925767;29;20036;-89
2022/10/17 05:31:11;;;;;;;4.38;3.88;;;;;;;13.61;88.16;98829.56;4925652;29;20543;-88
2022/10/17 05:33:38;;;;;;;5.20;3.70;;;;;;;13.61;87.82;98831.34;4934115;29;20069;-88
2022/10/17 05:36:05;;;;;;;5.25;4.10;;;;;;;13.64;87.55;98836.22;4930104;29;20127;-88
2022/10/17 05:38:50;;;;;;;6.18;3.80;;;;;;;13.55;87.69;98830.31;4935094;29;20505;-88
2022/10/17 05:41:17;;;;;;;5.10;4.60;;;;;;;13.52;87.40;98833.38;4935831;29;20048;-88
2022/10/17 05:43:46;;;;;;;6.90;5.05;;;;;;;13.40;87.85;98824.44;4921915;29;20040;-89
2022/10/17 05:46:12;;;;;;;5.75;5.13;;;;;;;13.45;88.19;98837.84;4965568;28;20035;-88
2022/10/17 05:48:40;;;;;;;8.65;4.50;;;;;;;13.43;87.72;98829.28;4934965;29;20046;-88
2022/10/17 05:51:12;;;;;;;7.18;4.47;;;;;;;13.43;87.40;98834.56;4933597;29;20102;-88
2022/10/17 05:53:40;;;;;;;8.18;4.32;;;;;;;13.38;87.30;98837.81;4934005;29;20083;-88
2022/10/17 05:56:12;;;;;;;5.13;4.22;;;;;;;13.31;87.36;98821.19;4934413;29;20548;-88
2022/10/17 05:58:44;;;;;;;6.80;4.20;;;;;;;13.37;88.02;98832.72;4926321;29;20091;-88
2022/10/17 06:01:11;;;;;;;6.75;4.30;;;;;;;13.30;87.59;98824.81;4934665;29;20043;-87
2022/10/17 06:03:37;;;;;;;6.63;3.88;;;;;;;13.35;88.08;98842.66;4930103;29;20171;-88
2022/10/17 06:06:12;;;;;;;5.32;3.80;;;;;;;13.28;88.28;98828.66;4933083;29;20400;-88
2022/10/17 06:08:38;;;;;;;7.00;3.53;;;;;;;13.31;88.58;98837.00;4934109;29;20511;-90
2022/10/17 06:11:05;;;;;;;4.00;3.60;;;;;;;13.30;88.62;98839.81;4933721;29;20493;-88
2022/10/17 06:13:30;;;;;;;8.70;4.25;;;;;;;13.38;88.65;98848.34;4929110;29;20040;-88
2022/10/17 06:15:58;;;;;;;6.63;4.30;;;;;;;13.38;88.06;98843.09;4930929;29;20040;-88
2022/10/17 06:18:25;;;;;;;10.95;3.95;;;;;;;13.56;88.16;98871.50;4931773;29;20087;-87
2022/10/17 06:20:51;;;;;;;5.80;3.80;;;;;;;13.50;88.25;98853.84;4948831;29;20690;-88
2022/10/17 06:23:17;;;;;;;6.65;4.45;;;;;;;13.48;88.09;98853.22;4927875;29;20042;-88
2022/10/17 06:25:47;;;;;;;7.35;3.92;;;;;;;13.57;88.33;98854.69;4942093;29;20071;-90
2022/10/17 06:28:15;;;;;;;7.28;3.78;;;;;;;13.80;87.78;98877.22;4948551;29;20095;-89
2022/10/17 06:30:41;;;;;;;6.85;4.20;;;;;;;13.74;87.42;98862.22;4933156;29;20028;-89
2022/10/17 06:33:07;;;;;;;5.57;3.53;;;;;;;13.80;87.38;98862.22;4933637;29;20126;-88
2022/10/17 06:35:35;;;;;;;9.73;4.90;;;;;;;13.94;86.87;98876.22;4949191;29;20381;-87
2022/10/17 06:38:05;;;;;;;5.07;3.63;;;;;;;14.08;86.59;98880.47;4931367;29;20047;-88
2022/10/17 06:40:30;;;;;;;7.70;3.80;;;;;;;14.12;86.04;98884.34;4923553;29;20375;-89
2022/10/17 06:42:56;;;;;;;6.20;4.20;;;;;;;14.11;85.97;98881.91;4913341;29;20050;-89
2022/10/17 06:45:22;;;;;;;5.93;3.90;;;;;;;14.12;86.46;98871.16;4929301;29;20501;-88
2022/10/17 06:47:48;;;;;;;9.10;3.95;;;;;;;14.04;86.43;98874.00;4946266;28;20043;-88
2022/10/17 06:50:14;;;;;;;6.20;4.15;;;;;;;14.15;87.16;98889.22;4929414;29;20040;-88
2022/10/17 06:52:40;;;;;;;7.75;4.25;;;;;;;14.34;86.73;98899.97;4947622;29;20613;-88
2022/10/17 06:55:08;;;;;;;6.80;4.30;;;;;;;14.45;86.81;98904.59;4934218;29;20119;-88
2022/10/17 06:57:34;;;;;;;12.93;4.38;;;;;;;14.52;85.56;98905.47;4934470;29;20028;-88
2022/10/17 07:00:02;;;;;;;4.43;4.00;;;;;;;14.62;85.59;98916.41;4934545;29;20071;-89
2022/10/17 07:02:28;;;;;;;9.20;4.22;;;;;;;14.71;84.48;98923.09;4935113;29;20039;-88
2022/10/17 07:04:55;;;;;;;6.75;4.80;;;;;;;14.83;83.91;98914.53;4965801;28;20351;-88
2022/10/17 07:07:21;;;;;;;5.47;4.30;;;;;;;14.92;84.32;98914.09;4935218;29;20503;-88
2022/10/17 07:09:58;;;;;;;13.20;5.60;;;;;;;14.99;83.31;98911.44;4958091;28;20039;-88
2022/10/17 07:12:24;;;;;;;16.75;5.97;;;;;;;15.21;83.24;98931.28;4946279;29;20045;-88
2022/10/17 07:14:50;;;;;;;17.33;6.22;;;;;;;15.26;83.26;98931.47;4952573;28;20256;-88
2022/10/17 07:17:17;;;;;;;8.98;5.18;;;;;;;15.28;82.94;98918.03;4934304;29;20115;-88
2022/10/17 07:19:46;;;;;;;6.28;4.47;;;;;;;15.48;82.17;98920.63;4932080;29;20040;-89
2022/10/17 07:22:14;;;;;;;9.57;4.72;;;;;;;15.47;81.95;98903.94;4931727;29;20066;-89
2022/10/17 07:24:43;;;;;;;5.97;3.85;;;;;;;15.55;81.73;98910.00;4933334;29;20031;-89
2022/10/17 07:27:08;;;;;;;10.27;4.40;;;;;;;15.79;82.59;98918.03;4934136;29;20047;-88
2022/10/17 07:29:41;;;;;;;7.50;3.92;;;;;;;15.75;82.93;98903.59;4931942;29;20433;-89
2022/10/17 07:32:07;;;;;;;10.18;3.70;;;;;;;15.82;80.81;98914.13;4945880;29;20515;-88
2022/10/17 07:34:37;;;;;;;6.35;4.35;;;;;;;15.99;82.22;98925.03;4939014;28;20127;-88
2022/10/17 07:37:03;;;;;;;7.90;3.83;;;;;;;15.97;82.02;98921.78;4931068;29;20503;-88
2022/10/17 07:39:35;;;;;;;10.88;4.38;;;;;;;16.02;81.64;98916.66;4933003;29;20035;-89
2022/10/17 07:42:01;;;;;;;5.55;4.20;;;;;;;16.02;80.78;98903.44;4933624;29;20119;-89
2022/10/17 07:44:26;;;;;;;7.47;4.50;;;;;;;16.19;82.39;98923.06;4932802;29;20039;-88
2022/10/17 07:46:56;;;;;;;4.75;4.00;;;;;;;16.27;82.36;98920.13;4936311;29;20036;-88
2022/10/17 07:49:24;;;;;;;7.95;3.58;;;;;;;16.29;80.15;98925.19;4932245;29;20035;-89
2022/10/17 07:51:52;;;;;;;6.70;4.03;;;;;;;16.33;80.40;98944.94;4949030;28;20083;-88
2022/10/17 07:54:18;;;;;;;9.15;4.25;;;;;;;16.31;81.57;98939.03;4933154;29;20055;-88
2022/10/17 07:56:49;;;;;;;5.88;3.63;;;;;;;16.63;81.59;98942.44;4949032;29;20075;-88
2022/10/17 07:59:18;;;;;;;5.35;4.38;;;;;;;16.66;80.33;98915.50;4943962;29;20043;-88
2022/10/17 08:01:44;;;;;;;10.45;3.92;;;;;;;16.88;80.73;98915.13;4917873;29;20111;-88
2022/10/17 08:04:10;;;;;;;7.13;4.18;;;;;;;17.05;81.44;98929.41;4923761;29;20560;-89
2022/10/17 08:06:38;;;;;;;8.88;3.75;;;;;;;17.06;79.43;98915.13;4926985;29;20032;-89
2022/10/17 08:09:06;;;;;;;9.65;4.25;;;;;;;17.20;79.54;98913.13;4930439;29;20450;-89
2022/10/17 08:11:36;;;;;;;6.05;3.58;;;;;;;17.24;79.30;98911.66;4932155;29;20138;-88
2022/10/17 08:14:02;;;;;;;5.00;3.35;;;;;;;17.38;79.54;98911.25;4932650;29;20032;-88
2022/10/17 08:16:28;;;;;;;6.72;3.53;;;;;;;17.60;79.24;98945.25;4914590;29;20044;-88
2022/10/17 08:18:58;;;;;;;4.43;3.35;;;;;;;17.69;78.34;98930.63;4909672;29;20409;-88
2022/10/17 08:21:27;;;;;;;6.50;3.60;;;;;;;17.82;78.65;98929.69;4948560;29;20528;-89
2022/10/17 08:23:58;;;;;;;10.40;3.92;;;;;;;17.83;78.35;98926.81;4932307;29;20032;-88
2022/10/17 08:26:31;;;;;;;9.35;3.40;;;;;;;18.12;78.04;98943.75;4944698;29;20110;-88
2022/10/17 08:28:57;;;;;;;7.60;3.63;;;;;;;18.20;77.07;98934.63;4914584;29;20107;-89
2022/10/17 08:31:22;;;;;;;7.78;3.22;;;;;;;18.15;76.84;98923.88;4953073;28;20400;-89
2022/10/17 08:33:59;;;;;;;3.90;3.30;;;;;;;18.37;77.00;98959.47;4933896;29;20048;-89
2022/10/17 08:36:27;;;;;;;5.65;3.13;;;;;;;18.31;76.57;98925.06;4930871;29;20099;-88
2022/10/17 08:39:00;;;;;;;4.63;2.92;;;;;;;18.59;77.00;98940.31;4932858;29;20032;-89
2022/10/17 08:41:51;;;;;;;6.80;3.35;;;;;;;18.61;76.04;98924.97;4936087;29;20055;-88
2022/10/17 08:44:56;;;;;;;7.65;3.15;;;;;;;18.76;75.22;98935.16;4924508;29;20038;-88
2022/10/17 08:48:14;;;;;;;;;;;;;;;;;;;;;
2022/10/17 08:51:08;;;;;;;5.15;3.25;;;;;;;18.93;74.43;98931.56;4935877;29;20512;-89
2022/10/17 08:53:52;;;;;;;5.18;3.00;;;;;;;19.11;73.63;98929.78;4930636;29;20498;-89
2022/10/17 08:56:32;;;;;;;6.25;3.13;;;;;;;19.15;74.28;98915.81;4935190;29;20671;-88
2022/10/17 08:58:58;;;;;;;3.33;2.95;;;;;;;19.14;74.14;98910.72;4917521;29;20039;-90
2022/10/17 09:01:57;;;;;;;4.60;3.13;;;;;;;19.31;73.42;98927.56;4951632;29;20484;-90
2022/10/17 09:04:37;;;;;;;3.45;2.92;;;;;;;19.45;73.92;98936.88;4931778;29;20071;-91
2022/10/17 09:07:41;;;;;;;3.65;3.10;;;;;;;19.57;72.63;98936.84;4938240;29;20027;-91
2022/10/17 09:10:24;;;;;;;3.97;3.10;;;;;;;19.62;72.43;98923.66;4936735;29;20680;-90
2022/10/17 09:13:02;;;;;;;5.07;3.08;;;;;;;19.64;72.55;98910.91;4937647;29;20043;-89
2022/10/17 09:15:54;;;;;;;5.15;3.70;;;;;;;19.58;72.34;98916.34;4937687;29;20055;-90
2022/10/17 09:18:27;;;;;;;3.30;3.00;;;;;;;19.74;72.99;98920.97;4931581;29;20142;-90
2022/10/17 09:21:06;;;;;;;4.30;2.90;;;;;;;19.93;71.34;98914.38;4935886;29;20078;-89
2022/10/17 09:23:54;;;;;;;6.72;3.33;;;;;;;20.16;71.97;98918.75;4936517;29;20035;-89
2022/10/17 09:26:22;;;;;;;5.28;3.22;;;;;;;20.17;71.46;98898.25;4936988;29;20063;-89
2022/10/17 09:29:00;;;;;;;5.05;3.10;;;;;;;20.38;71.13;98908.16;4921854;29;20036;-90
2022/10/17 09:31:39;;;;;;;3.58;3.00;;;;;;;20.57;67.86;98914.91;4932778;29;20036;-90
2022/10/17 09:34:10;;;;;;;3.80;3.20;;;;;;;20.63;69.45;98918.44;4916725;29;20055;-92
2022/10/17 09:36:39;;;;;;;3.75;2.88;;;;;;;20.69;69.66;98912.13;4916691;29;20048;-89
2022/10/17 09:39:23;;;;;;;4.68;3.45;;;;;;;20.91;69.14;98920.13;4935855;29;20127;-91
2022/10/17 09:42:02;;;;;;;3.25;2.95;;;;;;;20.93;69.24;98907.38;4920097;29;20401;-91
2022/10/17 09:44:37;;;;;;;5.70;2.70;;;;;;;20.83;67.63;98894.72;4952103;29;20433;-91
2022/10/17 09:47:57;;;;;;;3.10;2.80;;;;;;;21.05;67.32;98910.75;4936930;29;20036;-94
2022/10/17 09:50:29;;;;;;;3.13;2.63;;;;;;;21.05;67.05;98900.06;4935440;29;20489;-89
2022/10/17 09:53:21;;;;;;;4.75;2.50;;;;;;;21.09;67.18;98901.19;4950931;29;20625;-91
2022/10/17 09:55:55;;;;;;;4.97;2.83;;;;;;;21.17;67.83;98907.97;4938861;29;20047;-91
2022/10/17 09:58:22;;;;;;;4.57;3.00;;;;;;;21.24;67.37;98907.75;4926818;29;20418;-91
2022/10/17 10:01:30;;;;;;;3.45;2.70;;;;;;;21.32;68.10;98916.16;4934248;29;20118;-90
2022/10/17 10:04:15;;;;;;;4.47;2.78;;;;;;;21.54;67.03;98908.13;4935880;29;20114;-90
2022/10/17 10:07:19;;;;;;;;;;;;;;;21.79;65.67;98914.78;4950936;29;20036;-91
2022/10/17 10:09:49;;;;;;;8.50;2.97;;;;;;;21.89;67.75;98910.34;4917040;29;19918;-90
2022/10/17 10:12:23;;;;;;;6.00;2.80;;;;;;;21.87;66.37;98891.09;4935744;29;20027;-90
2022/10/17 10:15:00;;;;;;;;;;;;;;;;;;;;;
2022/10/17 10:17:43;;;;;;;3.58;2.38;;;;;;;22.16;66.48;98905.00;4935491;29;20050;-90
2022/10/17 10:20:36;;;;;;;4.95;2.70;;;;;;;22.23;65.36;98906.63;4919635;29;20035;-91
2022/10/17 10:23:21;;;;;;;4.47;2.90;;;;;;;22.26;63.97;98904.28;4936141;29;20429;-90
2022/10/17 10:26:03;;;;;;;4.32;2.38;;;;;;;22.22;61.71;98891.69;4951219;29;20032;-89
2022/10/17 10:28:33;;;;;;;3.25;2.38;;;;;;;22.19;63.71;98906.38;4934973;29;20087;-89
2022/10/17 10:31:09;;;;;;;5.10;2.80;;;;;;;22.06;62.38;98880.81;4934181;29;20074;-90
2022/10/17 10:33:42;;;;;;;4.20;2.83;;;;;;;22.26;63.02;98914.16;4935793;29;20059;-90
2022/10/17 10:36:09;;;;;;;4.38;2.50;;;;;;;22.25;62.29;98900.00;4930939;29;20114;-90
2022/10/17 10:38:56;;;;;;;3.83;2.78;;;;;;;22.25;62.14;98885.81;4922512;29;20066;-90
2022/10/17 10:41:50;;;;;;;4.90;2.40;;;;;;;22.44;61.76;98919.09;4918843;29;20047;-90
2022/10/17 10:44:39;;;;;;;2.97;2.50;;;;;;;22.43;61.26;98888.06;4938113;29;20417;-90
2022/10/17 10:47:15;;;;;;;3.28;2.70;;;;;;;22.54;59.18;98899.63;4933866;29;20111;-91
2022/10/17 10:49:45;;;;;;;4.80;2.83;;;;;;;22.40;63.56;98885.94;4948457;28;20046;-91
2022/10/17 10:52:35;;;;;;;4.45;2.78;;;;;;;22.59;61.19;98899.69;4934780;29;20700;-91
2022/10/17 10:55:46;;;;;;;11.00;3.00;;;;;;;22.66;62.37;98909.06;4919362;29;20406;-90
2022/10/17 10:58:46;;;;;;;4.88;3.00;;;;;;;22.70;63.78;98907.50;4925211;29;20454;-90
2022/10/17 11:01:44;;;;;;;6.67;3.67;;;;;;;22.68;63.48;98901.63;4930636;29;20055;-90
2022/10/17 11:04:56;;;;;;;7.63;3.72;;;;;;;22.68;65.88;98898.94;4934051;29;20035;-90
2022/10/17 11:07:38;;;;;;;3.45;3.03;;;;;;;22.75;63.37;98887.22;4934944;29;20098;-90
2022/10/17 11:10:35;;;;;;;7.75;3.80;;;;;;;22.82;64.38;98890.44;4924860;29;20040;-89
2022/10/17 11:13:12;;;;;;;4.18;3.22;;;;;;;22.75;61.80;98888.00;4932077;29;20035;-90
2022/10/17 11:16:14;;;;;;;5.38;3.25;;;;;;;22.76;63.30;98891.50;4921774;29;20645;-90
2022/10/17 11:19:13;;;;;;;9.25;2.88;;;;;;;22.78;62.57;98884.81;4933826;29;20067;-90
2022/10/17 11:22:02;;;;;;;3.20;2.70;;;;;;;22.86;59.27;98881.66;4948128;29;20032;-89
2022/10/17 11:24:41;;;;;;;2.92;2.67;;;;;;;22.84;60.71;98873.06;4930110;29;20051;-91
2022/10/17 11:27:08;;;;;;;3.55;2.78;;;;;;;22.89;59.29;98873.13;4933377;29;20111;-91
2022/10/17 11:29:40;;;;;;;5.07;2.92;;;;;;;22.86;60.45;98880.84;4933737;29;20042;-92
2022/10/17 11:32:35;;;;;;;5.03;2.80;;;;;;;23.02;59.35;98890.56;4928177;29;20613;-91
2022/10/17 11:35:18;;;;;;;5.47;3.35;;;;;;;22.92;60.56;98887.88;4929587;29;20382;-90
2022/10/17 11:38:05;;;;;;;4.47;2.90;;;;;;;22.92;57.66;98885.19;4931229;29;20040;-91
2022/10/17 11:40:37;;;;;;;4.60;2.78;;;;;;;23.01;58.14;98902.34;4933902;29;20541;-91
2022/10/17 11:43:14;;;;;;;3.30;2.90;;;;;;;23.09;58.10;98901.84;4928746;29;20035;-92
2022/10/17 11:45:49;;;;;;;3.90;2.90;;;;;;;22.99;58.99;98884.94;4931943;29;20036;-90
2022/10/17 11:48:31;;;;;;;4.65;3.33;;;;;;;23.06;58.56;98891.66;4909063;29;20073;-89
2022/10/17 11:51:08;;;;;;;4.97;3.17;;;;;;;23.15;59.23;98908.00;4934416;29;20031;-89
2022/10/17 11:54:10;;;;;;;5.85;3.30;;;;;;;23.14;58.89;98885.00;4933653;29;20040;-89
2022/10/17 11:56:50;;;;;;;4.80;3.33;;;;;;;23.26;58.19;98890.13;4919864;29;20134;-90
2022/10/17 12:00:16;;;;;;;6.10;2.83;;;;;;;23.25;59.07;98889.31;4932219;29;20042;-89
2022/10/17 12:03:08;;;;;;;4.22;3.42;;;;;;;23.14;59.32;98895.69;4948368;29;20043;-90
2022/10/17 12:06:07;;;;;;;5.63;3.10;;;;;;;23.31;59.25;98898.97;4914240;29;20047;-90
2022/10/17 12:09:08;;;;;;;4.28;3.88;;;;;;;23.17;58.81;98887.97;4921671;29;20443;-90
2022/10/17 12:11:59;;;;;;;5.90;4.30;;;;;;;23.17;60.32;98896.00;4938075;29;20463;-91
2022/10/17 12:14:45;;;;;;;4.70;4.05;;;;;;;23.05;60.43;98895.41;4914675;29;20084;-90
2022/10/17 12:17:39;;;;;;;4.55;3.47;;;;;;;23.09;60.67;98891.16;4929006;29;20035;-90